sensor_id;sensor_type;location;lat;lon;timestamp;temperature;humidity
21255;DHT22;10785;50.674;17.954;2023-02-22T00:01:02;5.50;99.90
21255;DHT22;10785;50.674;17.954;2023-02-22T00:03:48;5.40;99.90
21255;DHT22;10785;50.674;17.954;2023-02-22T00:06:20;5.50;99.90
21255;DHT22;10785;50.674;17.954;2023-02-22T00:08:51;5.50;99.90
21255;DHT22;10785;50.674;17.954;2023-02-22T00:11:23;5.50;99.90
21255;DHT22;10785;50.674;17.954;2023-02-22T00:13:52;5.50;99.90
21255;DHT22;10785;50.674;17.954;2023-02-22T00:16:25;5.50;99.90
21255;DHT22;10785;50.674;17.954;2023-02-22T00:18:53;5.60;99.90
21255;DHT22;10785;50.674;17.954;2023-02-22T00:21:22;5.60;99.90
21255;DHT22;10785;50.674;17.954;2023-02-22T00:23:51;5.70;99.90
21255;DHT22;10785;50.674;17.954;2023-02-22T00:26:23;5.70;99.90
21255;DHT22;10785;50.674;17.954;2023-02-22T00:28:52;5.80;99.90
21255;DHT22;10785;50.674;17.954;2023-02-22T00:31:23;5.80;99.90
21255;DHT22;10785;50.674;17.954;2023-02-22T00:33:52;5.70;99.90
21255;DHT22;10785;50.674;17.954;2023-02-22T00:36:21;5.80;99.90
21255;DHT22;10785;50.674;17.954;2023-02-22T00:51:34;5.90;99.90
21255;DHT22;10785;50.674;17.954;2023-02-22T00:54:03;5.90;99.90
21255;DHT22;10785;50.674;17.954;2023-02-22T00:56:33;5.90;99.90
21255;DHT22;10785;50.674;17.954;2023-02-22T00:59:02;5.90;99.90
21255;DHT22;10785;50.674;17.954;2023-02-22T01:01:31;5.90;99.90
21255;DHT22;10785;50.674;17.954;2023-02-22T01:04:00;5.90;99.90
21255;DHT22;10785;50.674;17.954;2023-02-22T01:09:13;5.80;99.90
21255;DHT22;10785;50.674;17.954;2023-02-22T01:11:42;5.80;99.90
21255;DHT22;10785;50.674;17.954;2023-02-22T01:14:11;5.80;99.90
21255;DHT22;10785;50.674;17.954;2023-02-22T01:16:41;5.70;99.90
21255;DHT22;10785;50.674;17.954;2023-02-22T01:19:10;5.70;99.90
21255;DHT22;10785;50.674;17.954;2023-02-22T01:21:39;5.60;99.90
21255;DHT22;10785;50.674;17.954;2023-02-22T01:24:08;5.60;99.90
21255;DHT22;10785;50.674;17.954;2023-02-22T01:26:39;5.60;99.90
21255;DHT22;10785;50.674;17.954;2023-02-22T01:29:07;5.60;99.90
21255;DHT22;10785;50.674;17.954;2023-02-22T01:31:41;5.60;99.90
21255;DHT22;10785;50.674;17.954;2023-02-22T01:34:11;5.60;99.90
21255;DHT22;10785;50.674;17.954;2023-02-22T01:46:21;5.70;99.90
21255;DHT22;10785;50.674;17.954;2023-02-22T01:48:55;5.70;99.90
21255;DHT22;10785;50.674;17.954;2023-02-22T01:51:27;5.60;99.90
21255;DHT22;10785;50.674;17.954;2023-02-22T01:53:59;5.70;99.90
21255;DHT22;10785;50.674;17.954;2023-02-22T01:56:30;5.60;99.90
21255;DHT22;10785;50.674;17.954;2023-02-22T01:59:02;5.60;99.90
21255;DHT22;10785;50.674;17.954;2023-02-22T02:01:34;5.60;99.90
21255;DHT22;10785;50.674;17.954;2023-02-22T02:04:06;5.60;99.90
21255;DHT22;10785;50.674;17.954;2023-02-22T02:06:38;5.60;99.90
21255;DHT22;10785;50.674;17.954;2023-02-22T02:09:13;5.60;99.90
21255;DHT22;10785;50.674;17.954;2023-02-22T02:11:44;5.50;99.90
21255;DHT22;10785;50.674;17.954;2023-02-22T02:14:14;5.50;99.90
21255;DHT22;10785;50.674;17.954;2023-02-22T02:16:49;5.50;99.90
21255;DHT22;10785;50.674;17.954;2023-02-22T02:19:26;5.60;99.90
21255;DHT22;10785;50.674;17.954;2023-02-22T02:22:16;5.60;99.90
21255;DHT22;10785;50.674;17.954;2023-02-22T02:25:16;5.60;99.90
21255;DHT22;10785;50.674;17.954;2023-02-22T02:34:04;5.50;99.90
21255;DHT22;10785;50.674;17.954;2023-02-22T02:36:43;5.50;99.90
21255;DHT22;10785;50.674;17.954;2023-02-22T02:39:19;5.50;99.90
21255;DHT22;10785;50.674;17.954;2023-02-22T02:41:52;5.50;99.90
21255;DHT22;10785;50.674;17.954;2023-02-22T02:44:25;5.50;99.90
21255;DHT22;10785;50.674;17.954;2023-02-22T02:47:00;5.50;99.90
21255;DHT22;10785;50.674;17.954;2023-02-22T02:49:34;5.50;99.90
21255;DHT22;10785;50.674;17.954;2023-02-22T02:52:06;5.50;99.90
21255;DHT22;10785;50.674;17.954;2023-02-22T02:54:37;5.50;99.90
21255;DHT22;10785;50.674;17.954;2023-02-22T02:57:07;5.50;99.90
21255;DHT22;10785;50.674;17.954;2023-02-22T02:59:37;5.50;99.90
21255;DHT22;10785;50.674;17.954;2023-02-22T03:02:19;5.50;99.90
21255;DHT22;10785;50.674;17.954;2023-02-22T03:05:06;5.50;99.90
21255;DHT22;10785;50.674;17.954;2023-02-22T03:07:46;5.50;99.90
21255;DHT22;10785;50.674;17.954;2023-02-22T03:10:37;5.50;99.90
21255;DHT22;10785;50.674;17.954;2023-02-22T03:13:14;5.50;99.90
21255;DHT22;10785;50.674;17.954;2023-02-22T04:06:51;5.40;99.90
21255;DHT22;10785;50.674;17.954;2023-02-22T04:09:21;5.40;99.90
21255;DHT22;10785;50.674;17.954;2023-02-22T04:11:50;5.40;99.90
21255;DHT22;10785;50.674;17.954;2023-02-22T04:14:19;5.40;99.90
21255;DHT22;10785;50.674;17.954;2023-02-22T04:16:50;5.40;99.90
21255;DHT22;10785;50.674;17.954;2023-02-22T04:19:40;5.40;99.90
21255;DHT22;10785;50.674;17.954;2023-02-22T04:22:14;5.40;99.90
21255;DHT22;10785;50.674;17.954;2023-02-22T04:24:44;5.40;99.90
21255;DHT22;10785;50.674;17.954;2023-02-22T04:27:16;5.30;99.90
21255;DHT22;10785;50.674;17.954;2023-02-22T04:29:45;5.30;99.90
21255;DHT22;10785;50.674;17.954;2023-02-22T04:32:14;5.30;99.90
21255;DHT22;10785;50.674;17.954;2023-02-22T04:34:43;5.30;99.90
21255;DHT22;10785;50.674;17.954;2023-02-22T04:37:12;5.30;99.90
21255;DHT22;10785;50.674;17.954;2023-02-22T04:39:41;5.20;99.90
21255;DHT22;10785;50.674;17.954;2023-02-22T04:42:10;5.20;99.90
21255;DHT22;10785;50.674;17.954;2023-02-22T04:44:39;5.20;99.90
21255;DHT22;10785;50.674;17.954;2023-02-22T04:47:08;5.20;99.90
21255;DHT22;10785;50.674;17.954;2023-02-22T04:49:36;5.20;99.90
21255;DHT22;10785;50.674;17.954;2023-02-22T04:52:06;5.20;99.90
21255;DHT22;10785;50.674;17.954;2023-02-22T04:54:37;5.20;99.90
21255;DHT22;10785;50.674;17.954;2023-02-22T04:57:07;5.20;99.90
21255;DHT22;10785;50.674;17.954;2023-02-22T04:59:36;5.20;99.90
21255;DHT22;10785;50.674;17.954;2023-02-22T05:02:04;5.20;99.90
21255;DHT22;10785;50.674;17.954;2023-02-22T05:04:33;5.20;99.90
21255;DHT22;10785;50.674;17.954;2023-02-22T05:07:02;5.20;99.90
21255;DHT22;10785;50.674;17.954;2023-02-22T05:09:30;5.20;99.90
21255;DHT22;10785;50.674;17.954;2023-02-22T05:11:59;5.20;99.90
21255;DHT22;10785;50.674;17.954;2023-02-22T05:14:29;5.20;99.90
21255;DHT22;10785;50.674;17.954;2023-02-22T05:16:58;5.20;99.90
21255;DHT22;10785;50.674;17.954;2023-02-22T05:19:29;5.20;99.90
21255;DHT22;10785;50.674;17.954;2023-02-22T05:21:58;5.20;99.90
21255;DHT22;10785;50.674;17.954;2023-02-22T05:24:26;5.20;99.90
21255;DHT22;10785;50.674;17.954;2023-02-22T05:26:55;5.20;99.90
21255;DHT22;10785;50.674;17.954;2023-02-22T05:29:23;5.20;99.90
21255;DHT22;10785;50.674;17.954;2023-02-22T05:31:53;5.20;99.90
21255;DHT22;10785;50.674;17.954;2023-02-22T05:34:22;5.20;99.90
21255;DHT22;10785;50.674;17.954;2023-02-22T05:36:51;5.20;99.90
21255;DHT22;10785;50.674;17.954;2023-02-22T05:39:19;5.20;99.90
21255;DHT22;10785;50.674;17.954;2023-02-22T05:41:48;5.20;99.90
21255;DHT22;10785;50.674;17.954;2023-02-22T05:44:16;5.20;99.90
21255;DHT22;10785;50.674;17.954;2023-02-22T05:46:45;5.20;99.90
21255;DHT22;10785;50.674;17.954;2023-02-22T05:49:15;5.20;99.90
21255;DHT22;10785;50.674;17.954;2023-02-22T05:51:43;5.20;99.90
21255;DHT22;10785;50.674;17.954;2023-02-22T05:54:12;5.20;99.90
21255;DHT22;10785;50.674;17.954;2023-02-22T05:56:41;5.20;99.90
21255;DHT22;10785;50.674;17.954;2023-02-22T05:59:09;5.20;99.90
21255;DHT22;10785;50.674;17.954;2023-02-22T06:01:38;5.30;99.90
21255;DHT22;10785;50.674;17.954;2023-02-22T06:04:06;5.20;99.90
21255;DHT22;10785;50.674;17.954;2023-02-22T06:06:36;5.30;99.90
21255;DHT22;10785;50.674;17.954;2023-02-22T06:09:05;5.30;99.90
21255;DHT22;10785;50.674;17.954;2023-02-22T06:11:33;5.30;99.90
21255;DHT22;10785;50.674;17.954;2023-02-22T06:14:03;5.30;99.90
21255;DHT22;10785;50.674;17.954;2023-02-22T06:16:31;5.30;99.90
21255;DHT22;10785;50.674;17.954;2023-02-22T06:19:00;5.40;99.90
21255;DHT22;10785;50.674;17.954;2023-02-22T06:21:29;5.40;99.90
21255;DHT22;10785;50.674;17.954;2023-02-22T06:24:00;5.40;99.90
21255;DHT22;10785;50.674;17.954;2023-02-22T06:26:30;5.40;99.90
21255;DHT22;10785;50.674;17.954;2023-02-22T06:28:58;5.40;99.90
21255;DHT22;10785;50.674;17.954;2023-02-22T06:31:28;5.50;99.90
21255;DHT22;10785;50.674;17.954;2023-02-22T06:33:58;5.50;99.90
21255;DHT22;10785;50.674;17.954;2023-02-22T06:36:26;5.50;99.90
21255;DHT22;10785;50.674;17.954;2023-02-22T06:38:55;5.60;99.90
21255;DHT22;10785;50.674;17.954;2023-02-22T06:41:25;5.60;99.90
21255;DHT22;10785;50.674;17.954;2023-02-22T06:43:56;5.60;99.90
21255;DHT22;10785;50.674;17.954;2023-02-22T06:46:24;5.60;99.90
21255;DHT22;10785;50.674;17.954;2023-02-22T06:48:53;5.60;99.90
21255;DHT22;10785;50.674;17.954;2023-02-22T06:51:22;5.70;99.90
21255;DHT22;10785;50.674;17.954;2023-02-22T06:53:50;5.70;99.90
21255;DHT22;10785;50.674;17.954;2023-02-22T06:56:19;5.70;99.90
21255;DHT22;10785;50.674;17.954;2023-02-22T06:58:49;5.80;99.90
21255;DHT22;10785;50.674;17.954;2023-02-22T07:01:18;5.70;99.90
21255;DHT22;10785;50.674;17.954;2023-02-22T07:03:48;5.70;99.90
21255;DHT22;10785;50.674;17.954;2023-02-22T07:06:16;5.70;99.90
21255;DHT22;10785;50.674;17.954;2023-02-22T07:21:26;5.90;99.90
21255;DHT22;10785;50.674;17.954;2023-02-22T07:23:56;6.00;99.90
21255;DHT22;10785;50.674;17.954;2023-02-22T07:26:26;6.10;99.90
21255;DHT22;10785;50.674;17.954;2023-02-22T07:28:55;6.10;99.90
21255;DHT22;10785;50.674;17.954;2023-02-22T07:31:23;6.10;99.90
21255;DHT22;10785;50.674;17.954;2023-02-22T07:33:54;6.20;99.90
21255;DHT22;10785;50.674;17.954;2023-02-22T07:36:23;6.30;99.90
21255;DHT22;10785;50.674;17.954;2023-02-22T07:38:53;6.40;99.90
21255;DHT22;10785;50.674;17.954;2023-02-22T07:41:22;6.50;99.90
21255;DHT22;10785;50.674;17.954;2023-02-22T07:43:50;6.50;99.90
21255;DHT22;10785;50.674;17.954;2023-02-22T07:46:19;6.50;99.90
21255;DHT22;10785;50.674;17.954;2023-02-22T07:48:48;6.60;99.90
21255;DHT22;10785;50.674;17.954;2023-02-22T07:51:17;6.60;99.90
21255;DHT22;10785;50.674;17.954;2023-02-22T07:53:47;6.70;99.90
21255;DHT22;10785;50.674;17.954;2023-02-22T07:56:17;6.80;99.90
21255;DHT22;10785;50.674;17.954;2023-02-22T07:58:46;6.80;99.90
21255;DHT22;10785;50.674;17.954;2023-02-22T08:01:14;6.60;99.90
21255;DHT22;10785;50.674;17.954;2023-02-22T08:03:43;6.60;99.90
21255;DHT22;10785;50.674;17.954;2023-02-22T08:06:13;6.60;99.90
21255;DHT22;10785;50.674;17.954;2023-02-22T08:08:42;6.70;99.90
21255;DHT22;10785;50.674;17.954;2023-02-22T08:11:11;6.60;99.90
21255;DHT22;10785;50.674;17.954;2023-02-22T08:13:41;6.70;99.90
21255;DHT22;10785;50.674;17.954;2023-02-22T08:16:09;6.70;99.90
21255;DHT22;10785;50.674;17.954;2023-02-22T08:18:39;6.80;99.90
21255;DHT22;10785;50.674;17.954;2023-02-22T08:21:07;6.80;99.90
21255;DHT22;10785;50.674;17.954;2023-02-22T08:23:36;6.90;99.90
21255;DHT22;10785;50.674;17.954;2023-02-22T08:26:06;7.00;99.90
21255;DHT22;10785;50.674;17.954;2023-02-22T08:28:34;6.90;99.90
21255;DHT22;10785;50.674;17.954;2023-02-22T08:31:04;6.90;99.90
21255;DHT22;10785;50.674;17.954;2023-02-22T08:33:35;6.90;99.90
21255;DHT22;10785;50.674;17.954;2023-02-22T08:36:04;6.90;99.90
21255;DHT22;10785;50.674;17.954;2023-02-22T08:38:33;6.90;99.90
21255;DHT22;10785;50.674;17.954;2023-02-22T08:41:01;7.00;99.90
21255;DHT22;10785;50.674;17.954;2023-02-22T08:43:30;7.10;99.90
21255;DHT22;10785;50.674;17.954;2023-02-22T08:45:58;7.10;99.90
21255;DHT22;10785;50.674;17.954;2023-02-22T08:48:28;7.10;99.90
21255;DHT22;10785;50.674;17.954;2023-02-22T08:50:57;7.30;99.90
21255;DHT22;10785;50.674;17.954;2023-02-22T08:53:26;7.20;99.90
21255;DHT22;10785;50.674;17.954;2023-02-22T08:55:55;7.20;99.90
21255;DHT22;10785;50.674;17.954;2023-02-22T08:58:23;7.40;99.90
21255;DHT22;10785;50.674;17.954;2023-02-22T09:00:52;7.40;99.90
21255;DHT22;10785;50.674;17.954;2023-02-22T09:03:20;7.40;99.90
21255;DHT22;10785;50.674;17.954;2023-02-22T09:05:51;7.50;99.90
21255;DHT22;10785;50.674;17.954;2023-02-22T09:08:20;7.60;99.90
21255;DHT22;10785;50.674;17.954;2023-02-22T09:10:49;7.80;99.90
21255;DHT22;10785;50.674;17.954;2023-02-22T09:13:18;8.00;99.90
21255;DHT22;10785;50.674;17.954;2023-02-22T09:15:46;7.90;99.90
21255;DHT22;10785;50.674;17.954;2023-02-22T09:18:15;8.00;99.90
21255;DHT22;10785;50.674;17.954;2023-02-22T09:20:44;8.00;99.90
21255;DHT22;10785;50.674;17.954;2023-02-22T09:23:14;8.00;99.90
21255;DHT22;10785;50.674;17.954;2023-02-22T09:25:43;8.10;99.90
21255;DHT22;10785;50.674;17.954;2023-02-22T09:28:11;8.10;99.90
21255;DHT22;10785;50.674;17.954;2023-02-22T09:30:41;8.30;99.90
21255;DHT22;10785;50.674;17.954;2023-02-22T09:33:12;8.40;99.90
21255;DHT22;10785;50.674;17.954;2023-02-22T09:35:43;8.40;99.90
21255;DHT22;10785;50.674;17.954;2023-02-22T09:38:15;8.40;99.90
21255;DHT22;10785;50.674;17.954;2023-02-22T09:40:47;8.40;99.90
21255;DHT22;10785;50.674;17.954;2023-02-22T09:43:26;8.40;99.90
21255;DHT22;10785;50.674;17.954;2023-02-22T09:46:12;8.20;99.90
21255;DHT22;10785;50.674;17.954;2023-02-22T09:49:04;8.40;99.90
21255;DHT22;10785;50.674;17.954;2023-02-22T09:51:38;8.50;99.90
21255;DHT22;10785;50.674;17.954;2023-02-22T09:54:15;8.50;99.90
21255;DHT22;10785;50.674;17.954;2023-02-22T09:56:46;8.80;99.90
21255;DHT22;10785;50.674;17.954;2023-02-22T09:59:22;8.90;99.90
21255;DHT22;10785;50.674;17.954;2023-02-22T10:01:58;9.00;99.90
21255;DHT22;10785;50.674;17.954;2023-02-22T10:04:40;9.00;99.90
21255;DHT22;10785;50.674;17.954;2023-02-22T10:07:15;9.20;99.90
21255;DHT22;10785;50.674;17.954;2023-02-22T10:09:47;9.50;99.90
21255;DHT22;10785;50.674;17.954;2023-02-22T10:12:24;9.60;99.90
21255;DHT22;10785;50.674;17.954;2023-02-22T10:17:59;9.60;99.90
21255;DHT22;10785;50.674;17.954;2023-02-22T10:20:38;9.60;99.90
21255;DHT22;10785;50.674;17.954;2023-02-22T10:23:16;9.50;99.90
21255;DHT22;10785;50.674;17.954;2023-02-22T10:25:54;9.60;99.90
21255;DHT22;10785;50.674;17.954;2023-02-22T10:28:28;9.70;99.90
21255;DHT22;10785;50.674;17.954;2023-02-22T10:31:04;9.60;99.90
21255;DHT22;10785;50.674;17.954;2023-02-22T10:33:38;9.70;99.90
21255;DHT22;10785;50.674;17.954;2023-02-22T10:36:15;9.70;99.90
21255;DHT22;10785;50.674;17.954;2023-02-22T10:38:52;9.80;99.90
21255;DHT22;10785;50.674;17.954;2023-02-22T10:41:28;9.60;99.90
21255;DHT22;10785;50.674;17.954;2023-02-22T10:43:57;9.50;99.90
21255;DHT22;10785;50.674;17.954;2023-02-22T10:46:27;9.70;99.90
21255;DHT22;10785;50.674;17.954;2023-02-22T10:49:00;9.60;99.90
21255;DHT22;10785;50.674;17.954;2023-02-22T10:51:29;9.70;99.90
21255;DHT22;10785;50.674;17.954;2023-02-22T10:54:20;9.50;99.90
21255;DHT22;10785;50.674;17.954;2023-02-22T10:56:55;9.60;99.90
21255;DHT22;10785;50.674;17.954;2023-02-22T10:59:30;9.40;99.90
21255;DHT22;10785;50.674;17.954;2023-02-22T11:02:00;9.20;99.90
21255;DHT22;10785;50.674;17.954;2023-02-22T11:04:45;9.00;99.90
21255;DHT22;10785;50.674;17.954;2023-02-22T11:07:22;8.70;99.90
21255;DHT22;10785;50.674;17.954;2023-02-22T11:09:52;8.60;97.80
21255;DHT22;10785;50.674;17.954;2023-02-22T11:12:28;8.70;96.80
21255;DHT22;10785;50.674;17.954;2023-02-22T11:18:03;8.90;97.70
21255;DHT22;10785;50.674;17.954;2023-02-22T11:20:36;8.90;99.90
21255;DHT22;10785;50.674;17.954;2023-02-22T11:23:07;8.80;99.90
21255;DHT22;10785;50.674;17.954;2023-02-22T11:25:39;8.80;99.90
21255;DHT22;10785;50.674;17.954;2023-02-22T11:28:27;8.90;99.90
21255;DHT22;10785;50.674;17.954;2023-02-22T11:31:10;8.90;99.90
21255;DHT22;10785;50.674;17.954;2023-02-22T11:33:45;9.00;99.90
21255;DHT22;10785;50.674;17.954;2023-02-22T11:36:29;8.90;98.10
21255;DHT22;10785;50.674;17.954;2023-02-22T11:38:58;8.80;99.50
21255;DHT22;10785;50.674;17.954;2023-02-22T11:41:28;8.90;95.80
21255;DHT22;10785;50.674;17.954;2023-02-22T11:44:19;9.00;92.30
21255;DHT22;10785;50.674;17.954;2023-02-22T11:46:48;9.20;92.50
21255;DHT22;10785;50.674;17.954;2023-02-22T11:49:17;9.20;92.70
21255;DHT22;10785;50.674;17.954;2023-02-22T11:51:54;9.30;91.10
21255;DHT22;10785;50.674;17.954;2023-02-22T11:54:57;9.10;90.60
21255;DHT22;10785;50.674;17.954;2023-02-22T11:57:38;9.00;87.30
21255;DHT22;10785;50.674;17.954;2023-02-22T12:17:45;9.70;79.80
21255;DHT22;10785;50.674;17.954;2023-02-22T12:20:28;9.80;79.10
21255;DHT22;10785;50.674;17.954;2023-02-22T12:23:04;10.00;71.70
21255;DHT22;10785;50.674;17.954;2023-02-22T12:25:37;10.00;68.50
21255;DHT22;10785;50.674;17.954;2023-02-22T12:28:17;10.00;62.80
21255;DHT22;10785;50.674;17.954;2023-02-22T12:30:57;10.10;64.40
21255;DHT22;10785;50.674;17.954;2023-02-22T12:33:37;10.10;59.40
21255;DHT22;10785;50.674;17.954;2023-02-22T12:36:12;10.10;59.80
21255;DHT22;10785;50.674;17.954;2023-02-22T12:38:44;9.90;57.80
21255;DHT22;10785;50.674;17.954;2023-02-22T12:41:21;9.90;58.30
21255;DHT22;10785;50.674;17.954;2023-02-22T12:43:59;10.00;58.50
21255;DHT22;10785;50.674;17.954;2023-02-22T12:46:31;10.00;57.30
21255;DHT22;10785;50.674;17.954;2023-02-22T12:49:10;10.10;57.20
21255;DHT22;10785;50.674;17.954;2023-02-22T12:51:44;10.20;56.40
21255;DHT22;10785;50.674;17.954;2023-02-22T12:54:22;10.20;56.40
21255;DHT22;10785;50.674;17.954;2023-02-22T12:56:58;10.20;56.00
21255;DHT22;10785;50.674;17.954;2023-02-22T12:59:31;10.20;55.00
21255;DHT22;10785;50.674;17.954;2023-02-22T13:02:07;10.20;54.80
21255;DHT22;10785;50.674;17.954;2023-02-22T13:04:40;9.90;54.90
21255;DHT22;10785;50.674;17.954;2023-02-22T13:07:27;9.60;56.90
21255;DHT22;10785;50.674;17.954;2023-02-22T13:10:19;9.40;59.90
21255;DHT22;10785;50.674;17.954;2023-02-22T13:12:54;9.30;59.80
21255;DHT22;10785;50.674;17.954;2023-02-22T13:15:29;9.40;63.90
21255;DHT22;10785;50.674;17.954;2023-02-22T13:18:05;9.40;63.00
21255;DHT22;10785;50.674;17.954;2023-02-22T13:20:43;9.50;62.00
21255;DHT22;10785;50.674;17.954;2023-02-22T13:23:22;9.50;60.70
21255;DHT22;10785;50.674;17.954;2023-02-22T13:25:57;9.60;59.90
21255;DHT22;10785;50.674;17.954;2023-02-22T13:28:31;9.40;59.80
21255;DHT22;10785;50.674;17.954;2023-02-22T13:31:11;9.50;60.60
21255;DHT22;10785;50.674;17.954;2023-02-22T13:33:57;9.40;63.00
21255;DHT22;10785;50.674;17.954;2023-02-22T13:36:35;9.40;63.00
21255;DHT22;10785;50.674;17.954;2023-02-22T13:39:25;9.40;63.30
21255;DHT22;10785;50.674;17.954;2023-02-22T13:42:17;9.40;64.60
21255;DHT22;10785;50.674;17.954;2023-02-22T13:45:18;9.50;71.90
21255;DHT22;10785;50.674;17.954;2023-02-22T13:48:08;9.70;70.80
21255;DHT22;10785;50.674;17.954;2023-02-22T13:51:03;9.40;70.10
21255;DHT22;10785;50.674;17.954;2023-02-22T13:53:41;9.50;70.50
21255;DHT22;10785;50.674;17.954;2023-02-22T13:56:15;9.50;68.20
21255;DHT22;10785;50.674;17.954;2023-02-22T13:58:50;9.40;70.10
21255;DHT22;10785;50.674;17.954;2023-02-22T14:01:45;9.20;72.40
21255;DHT22;10785;50.674;17.954;2023-02-22T14:04:36;9.20;73.00
21255;DHT22;10785;50.674;17.954;2023-02-22T14:10:55;9.10;74.60
21255;DHT22;10785;50.674;17.954;2023-02-22T14:13:25;9.00;76.90
21255;DHT22;10785;50.674;17.954;2023-02-22T14:16:17;9.00;78.00
21255;DHT22;10785;50.674;17.954;2023-02-22T14:18:49;8.90;77.50
21255;DHT22;10785;50.674;17.954;2023-02-22T14:21:20;9.00;79.00
21255;DHT22;10785;50.674;17.954;2023-02-22T14:23:49;8.90;77.10
21255;DHT22;10785;50.674;17.954;2023-02-22T14:26:24;8.90;77.00
21255;DHT22;10785;50.674;17.954;2023-02-22T14:28:56;8.90;75.60
21255;DHT22;10785;50.674;17.954;2023-02-22T14:31:29;8.90;76.10
21255;DHT22;10785;50.674;17.954;2023-02-22T14:34:09;8.90;75.00
21255;DHT22;10785;50.674;17.954;2023-02-22T14:36:43;8.90;73.50
21255;DHT22;10785;50.674;17.954;2023-02-22T14:39:24;8.80;75.10
21255;DHT22;10785;50.674;17.954;2023-02-22T14:42:04;8.80;74.90
21255;DHT22;10785;50.674;17.954;2023-02-22T14:44:37;8.70;72.70
21255;DHT22;10785;50.674;17.954;2023-02-22T14:47:13;8.70;72.30
21255;DHT22;10785;50.674;17.954;2023-02-22T14:49:44;8.50;70.70
21255;DHT22;10785;50.674;17.954;2023-02-22T14:52:20;8.50;73.10
21255;DHT22;10785;50.674;17.954;2023-02-22T14:55:04;8.40;73.50
21255;DHT22;10785;50.674;17.954;2023-02-22T14:57:43;8.30;76.30
21255;DHT22;10785;50.674;17.954;2023-02-22T15:00:16;8.20;79.00
21255;DHT22;10785;50.674;17.954;2023-02-22T15:02:58;8.20;75.60
21255;DHT22;10785;50.674;17.954;2023-02-22T15:05:29;8.10;76.10
21255;DHT22;10785;50.674;17.954;2023-02-22T15:08:07;8.10;79.80
21255;DHT22;10785;50.674;17.954;2023-02-22T15:10:41;8.00;80.40
21255;DHT22;10785;50.674;17.954;2023-02-22T15:13:17;7.90;80.40
21255;DHT22;10785;50.674;17.954;2023-02-22T15:15:48;7.90;80.30
21255;DHT22;10785;50.674;17.954;2023-02-22T15:18:25;7.90;81.50
21255;DHT22;10785;50.674;17.954;2023-02-22T15:20:57;7.90;82.60
21255;DHT22;10785;50.674;17.954;2023-02-22T15:23:40;7.90;85.70
21255;DHT22;10785;50.674;17.954;2023-02-22T15:26:16;7.90;89.30
21255;DHT22;10785;50.674;17.954;2023-02-22T15:28:47;7.90;85.30
21255;DHT22;10785;50.674;17.954;2023-02-22T15:31:25;7.90;84.30
21255;DHT22;10785;50.674;17.954;2023-02-22T15:33:54;7.90;85.20
21255;DHT22;10785;50.674;17.954;2023-02-22T15:36:26;7.80;86.70
21255;DHT22;10785;50.674;17.954;2023-02-22T15:38:55;7.80;86.00
21255;DHT22;10785;50.674;17.954;2023-02-22T15:41:27;7.70;87.70
21255;DHT22;10785;50.674;17.954;2023-02-22T15:44:00;7.70;87.60
21255;DHT22;10785;50.674;17.954;2023-02-22T15:46:40;7.70;87.70
21255;DHT22;10785;50.674;17.954;2023-02-22T15:49:22;7.70;88.30
21255;DHT22;10785;50.674;17.954;2023-02-22T15:52:13;7.60;89.90
21255;DHT22;10785;50.674;17.954;2023-02-22T15:54:46;7.50;90.20
21255;DHT22;10785;50.674;17.954;2023-02-22T15:57:22;7.50;91.00
21255;DHT22;10785;50.674;17.954;2023-02-22T15:59:56;7.50;92.20
21255;DHT22;10785;50.674;17.954;2023-02-22T16:02:32;7.30;93.30
21255;DHT22;10785;50.674;17.954;2023-02-22T16:05:05;7.30;94.50
21255;DHT22;10785;50.674;17.954;2023-02-22T16:07:38;7.20;95.80
21255;DHT22;10785;50.674;17.954;2023-02-22T16:10:25;7.10;96.60
21255;DHT22;10785;50.674;17.954;2023-02-22T16:13:08;7.00;97.10
21255;DHT22;10785;50.674;17.954;2023-02-22T16:15:58;7.00;98.00
21255;DHT22;10785;50.674;17.954;2023-02-22T16:18:31;7.00;98.70
21255;DHT22;10785;50.674;17.954;2023-02-22T16:21:06;7.00;98.60
21255;DHT22;10785;50.674;17.954;2023-02-22T16:23:45;6.90;99.30
21255;DHT22;10785;50.674;17.954;2023-02-22T16:26:24;6.90;99.90
21255;DHT22;10785;50.674;17.954;2023-02-22T16:28:54;6.80;99.90
21255;DHT22;10785;50.674;17.954;2023-02-22T16:31:26;6.70;99.90
21255;DHT22;10785;50.674;17.954;2023-02-22T16:33:56;6.60;99.90
21255;DHT22;10785;50.674;17.954;2023-02-22T16:36:37;6.60;99.90
21255;DHT22;10785;50.674;17.954;2023-02-22T16:39:09;6.60;99.90
21255;DHT22;10785;50.674;17.954;2023-02-22T16:41:40;6.70;99.90
21255;DHT22;10785;50.674;17.954;2023-02-22T16:44:09;6.70;99.90
21255;DHT22;10785;50.674;17.954;2023-02-22T16:46:40;6.70;99.90
21255;DHT22;10785;50.674;17.954;2023-02-22T16:49:09;6.70;99.90
21255;DHT22;10785;50.674;17.954;2023-02-22T16:51:40;6.70;99.90
21255;DHT22;10785;50.674;17.954;2023-02-22T16:54:12;6.70;99.90
21255;DHT22;10785;50.674;17.954;2023-02-22T16:56:41;6.80;99.90
21255;DHT22;10785;50.674;17.954;2023-02-22T16:59:12;6.70;99.90
21255;DHT22;10785;50.674;17.954;2023-02-22T17:01:42;6.70;99.90
21255;DHT22;10785;50.674;17.954;2023-02-22T17:04:16;6.70;99.90
21255;DHT22;10785;50.674;17.954;2023-02-22T17:06:47;6.60;99.90
21255;DHT22;10785;50.674;17.954;2023-02-22T17:09:16;6.60;99.90
21255;DHT22;10785;50.674;17.954;2023-02-22T17:11:48;6.60;99.90
21255;DHT22;10785;50.674;17.954;2023-02-22T17:14:19;6.50;99.90
21255;DHT22;10785;50.674;17.954;2023-02-22T17:16:51;6.50;99.90
21255;DHT22;10785;50.674;17.954;2023-02-22T17:19:21;6.50;99.90
21255;DHT22;10785;50.674;17.954;2023-02-22T17:21:50;6.50;99.90
21255;DHT22;10785;50.674;17.954;2023-02-22T17:24:21;6.40;99.90
21255;DHT22;10785;50.674;17.954;2023-02-22T17:26:52;6.40;99.90
21255;DHT22;10785;50.674;17.954;2023-02-22T17:29:23;6.40;99.90
21255;DHT22;10785;50.674;17.954;2023-02-22T17:31:55;6.40;99.90
21255;DHT22;10785;50.674;17.954;2023-02-22T17:34:24;6.40;99.90
21255;DHT22;10785;50.674;17.954;2023-02-22T17:36:53;6.40;99.90
21255;DHT22;10785;50.674;17.954;2023-02-22T17:39:21;6.40;99.90
21255;DHT22;10785;50.674;17.954;2023-02-22T17:41:50;6.30;99.90
21255;DHT22;10785;50.674;17.954;2023-02-22T17:44:24;6.30;99.90
21255;DHT22;10785;50.674;17.954;2023-02-22T17:46:52;6.30;99.90
21255;DHT22;10785;50.674;17.954;2023-02-22T17:49:22;6.30;99.90
21255;DHT22;10785;50.674;17.954;2023-02-22T17:51:51;6.30;99.90
21255;DHT22;10785;50.674;17.954;2023-02-22T17:54:20;6.30;99.90
21255;DHT22;10785;50.674;17.954;2023-02-22T17:56:49;6.30;99.90
21255;DHT22;10785;50.674;17.954;2023-02-22T17:59:19;6.30;99.90
21255;DHT22;10785;50.674;17.954;2023-02-22T18:01:48;6.30;99.90
21255;DHT22;10785;50.674;17.954;2023-02-22T18:04:18;6.30;99.90
21255;DHT22;10785;50.674;17.954;2023-02-22T18:06:48;6.30;99.90
21255;DHT22;10785;50.674;17.954;2023-02-22T18:09:21;6.30;99.90